sensor_id;sensor_type;location;lat;lon;timestamp;temperature;humidity
6078;DHT22;3067;49.470;10.394;2024-03-08T00:02:08;2.00;60.90
6078;DHT22;3067;49.470;10.394;2024-03-08T00:04:35;1.90;60.80
6078;DHT22;3067;49.470;10.394;2024-03-08T00:07:03;1.90;60.80
6078;DHT22;3067;49.470;10.394;2024-03-08T00:09:30;1.90;61.00
6078;DHT22;3067;49.470;10.394;2024-03-08T00:11:59;1.90;61.10
6078;DHT22;3067;49.470;10.394;2024-03-08T00:14:26;1.90;61.20
6078;DHT22;3067;49.470;10.394;2024-03-08T00:16:53;1.90;61.00
6078;DHT22;3067;49.470;10.394;2024-03-08T00:19:20;2.00;61.10
6078;DHT22;3067;49.470;10.394;2024-03-08T00:21:47;2.00;61.00
6078;DHT22;3067;49.470;10.394;2024-03-08T00:24:14;2.00;60.70
6078;DHT22;3067;49.470;10.394;2024-03-08T00:26:41;1.90;60.80
6078;DHT22;3067;49.470;10.394;2024-03-08T00:29:10;2.00;60.90
6078;DHT22;3067;49.470;10.394;2024-03-08T00:31:38;1.90;60.90
6078;DHT22;3067;49.470;10.394;2024-03-08T00:34:07;1.90;61.00
6078;DHT22;3067;49.470;10.394;2024-03-08T00:36:37;1.90;60.90
6078;DHT22;3067;49.470;10.394;2024-03-08T00:39:04;1.90;60.80
6078;DHT22;3067;49.470;10.394;2024-03-08T00:41:32;1.90;60.60
6078;DHT22;3067;49.470;10.394;2024-03-08T00:43:59;1.90;60.60
6078;DHT22;3067;49.470;10.394;2024-03-08T00:46:28;1.90;60.70
6078;DHT22;3067;49.470;10.394;2024-03-08T00:48:57;1.90;60.60
6078;DHT22;3067;49.470;10.394;2024-03-08T00:51:24;1.90;60.50
6078;DHT22;3067;49.470;10.394;2024-03-08T00:53:51;1.90;60.40
6078;DHT22;3067;49.470;10.394;2024-03-08T00:56:18;1.90;60.50
6078;DHT22;3067;49.470;10.394;2024-03-08T00:58:45;1.80;60.50
6078;DHT22;3067;49.470;10.394;2024-03-08T01:01:13;1.80;60.40
6078;DHT22;3067;49.470;10.394;2024-03-08T01:03:44;1.80;60.40
6078;DHT22;3067;49.470;10.394;2024-03-08T01:06:11;1.80;60.50
6078;DHT22;3067;49.470;10.394;2024-03-08T01:08:38;1.80;60.70
6078;DHT22;3067;49.470;10.394;2024-03-08T01:11:07;1.70;60.80
6078;DHT22;3067;49.470;10.394;2024-03-08T01:13:34;1.70;60.90
6078;DHT22;3067;49.470;10.394;2024-03-08T01:16:02;1.70;60.90
6078;DHT22;3067;49.470;10.394;2024-03-08T01:18:29;1.70;60.90
6078;DHT22;3067;49.470;10.394;2024-03-08T01:20:58;1.60;60.70
6078;DHT22;3067;49.470;10.394;2024-03-08T01:23:25;1.60;60.70
6078;DHT22;3067;49.470;10.394;2024-03-08T01:25:52;1.50;60.70
6078;DHT22;3067;49.470;10.394;2024-03-08T01:28:22;1.50;60.70
6078;DHT22;3067;49.470;10.394;2024-03-08T01:30:49;1.40;60.70
6078;DHT22;3067;49.470;10.394;2024-03-08T01:33:22;1.40;60.50
6078;DHT22;3067;49.470;10.394;2024-03-08T01:35:49;1.40;60.60
6078;DHT22;3067;49.470;10.394;2024-03-08T01:38:18;1.30;60.90
6078;DHT22;3067;49.470;10.394;2024-03-08T01:40:46;1.20;61.20
6078;DHT22;3067;49.470;10.394;2024-03-08T01:43:20;1.20;61.40
6078;DHT22;3067;49.470;10.394;2024-03-08T01:45:48;1.20;61.60
6078;DHT22;3067;49.470;10.394;2024-03-08T01:48:15;1.10;61.80
6078;DHT22;3067;49.470;10.394;2024-03-08T01:50:43;1.10;62.10
6078;DHT22;3067;49.470;10.394;2024-03-08T01:53:11;1.00;62.30
6078;DHT22;3067;49.470;10.394;2024-03-08T01:55:42;1.00;62.30
6078;DHT22;3067;49.470;10.394;2024-03-08T01:58:11;1.00;62.50
6078;DHT22;3067;49.470;10.394;2024-03-08T02:00:42;1.00;62.70
6078;DHT22;3067;49.470;10.394;2024-03-08T02:03:10;1.00;63.00
6078;DHT22;3067;49.470;10.394;2024-03-08T02:05:40;0.90;63.10
6078;DHT22;3067;49.470;10.394;2024-03-08T02:08:08;0.80;63.20
6078;DHT22;3067;49.470;10.394;2024-03-08T02:10:38;0.80;63.30
6078;DHT22;3067;49.470;10.394;2024-03-08T02:13:07;0.80;63.30
6078;DHT22;3067;49.470;10.394;2024-03-08T02:15:50;0.80;63.30
6078;DHT22;3067;49.470;10.394;2024-03-08T02:18:18;0.80;63.30
6078;DHT22;3067;49.470;10.394;2024-03-08T02:20:46;0.80;63.30
6078;DHT22;3067;49.470;10.394;2024-03-08T02:23:14;0.80;63.20
6078;DHT22;3067;49.470;10.394;2024-03-08T02:25:41;0.80;63.20
6078;DHT22;3067;49.470;10.394;2024-03-08T02:28:09;0.80;63.20
6078;DHT22;3067;49.470;10.394;2024-03-08T02:30:37;0.80;63.10
6078;DHT22;3067;49.470;10.394;2024-03-08T02:33:04;0.80;63.00
6078;DHT22;3067;49.470;10.394;2024-03-08T02:35:31;0.80;63.10
6078;DHT22;3067;49.470;10.394;2024-03-08T02:38:00;0.80;63.00
6078;DHT22;3067;49.470;10.394;2024-03-08T02:40:27;0.80;62.90
6078;DHT22;3067;49.470;10.394;2024-03-08T02:42:54;0.60;63.10
6078;DHT22;3067;49.470;10.394;2024-03-08T02:45:21;0.60;63.20
6078;DHT22;3067;49.470;10.394;2024-03-08T02:47:48;0.60;63.20
6078;DHT22;3067;49.470;10.394;2024-03-08T02:50:16;0.60;63.10
6078;DHT22;3067;49.470;10.394;2024-03-08T02:52:43;0.60;63.10
6078;DHT22;3067;49.470;10.394;2024-03-08T02:55:13;0.60;63.30
6078;DHT22;3067;49.470;10.394;2024-03-08T02:57:42;0.60;63.30
6078;DHT22;3067;49.470;10.394;2024-03-08T03:00:10;0.50;63.30
6078;DHT22;3067;49.470;10.394;2024-03-08T03:02:37;0.40;63.60
6078;DHT22;3067;49.470;10.394;2024-03-08T03:05:05;0.40;63.70
6078;DHT22;3067;49.470;10.394;2024-03-08T03:07:32;0.40;63.80
6078;DHT22;3067;49.470;10.394;2024-03-08T03:10:00;0.40;63.90
6078;DHT22;3067;49.470;10.394;2024-03-08T03:12:29;0.30;64.10
6078;DHT22;3067;49.470;10.394;2024-03-08T03:14:56;0.30;64.30
6078;DHT22;3067;49.470;10.394;2024-03-08T03:17:23;0.30;64.30
6078;DHT22;3067;49.470;10.394;2024-03-08T03:19:51;0.20;64.70
6078;DHT22;3067;49.470;10.394;2024-03-08T03:22:18;0.10;64.70
6078;DHT22;3067;49.470;10.394;2024-03-08T03:24:45;0.00;64.80
6078;DHT22;3067;49.470;10.394;2024-03-08T03:27:13;0.00;64.80
6078;DHT22;3067;49.470;10.394;2024-03-08T03:29:42;0.00;65.00
6078;DHT22;3067;49.470;10.394;2024-03-08T03:32:11;0.00;65.10
6078;DHT22;3067;49.470;10.394;2024-03-08T03:34:38;0.00;65.20
6078;DHT22;3067;49.470;10.394;2024-03-08T03:37:06;0.00;65.60
6078;DHT22;3067;49.470;10.394;2024-03-08T03:39:34;0.00;65.80
6078;DHT22;3067;49.470;10.394;2024-03-08T03:42:06;0.00;65.50
6078;DHT22;3067;49.470;10.394;2024-03-08T03:44:33;-0.10;65.50
6078;DHT22;3067;49.470;10.394;2024-03-08T03:47:01;-0.10;65.70
6078;DHT22;3067;49.470;10.394;2024-03-08T03:49:29;-0.10;65.80
6078;DHT22;3067;49.470;10.394;2024-03-08T03:51:56;-0.10;66.60
6078;DHT22;3067;49.470;10.394;2024-03-08T03:54:23;-0.10;67.00
6078;DHT22;3067;49.470;10.394;2024-03-08T03:56:50;-0.10;67.60
6078;DHT22;3067;49.470;10.394;2024-03-08T03:59:18;-0.10;67.90
6078;DHT22;3067;49.470;10.394;2024-03-08T04:01:45;-0.10;68.00
6078;DHT22;3067;49.470;10.394;2024-03-08T04:04:14;-0.10;68.20
6078;DHT22;3067;49.470;10.394;2024-03-08T04:06:41;-0.10;68.30
6078;DHT22;3067;49.470;10.394;2024-03-08T04:09:09;-0.10;68.30
6078;DHT22;3067;49.470;10.394;2024-03-08T04:11:36;-0.20;68.20
6078;DHT22;3067;49.470;10.394;2024-03-08T04:14:04;-0.20;68.40
6078;DHT22;3067;49.470;10.394;2024-03-08T04:16:31;-0.20;68.70
6078;DHT22;3067;49.470;10.394;2024-03-08T04:18:58;-0.20;68.70
6078;DHT22;3067;49.470;10.394;2024-03-08T04:21:26;-0.20;68.70
6078;DHT22;3067;49.470;10.394;2024-03-08T04:23:53;-0.20;68.90
6078;DHT22;3067;49.470;10.394;2024-03-08T04:26:20;-0.20;68.90
6078;DHT22;3067;49.470;10.394;2024-03-08T04:28:47;-0.20;69.10
6078;DHT22;3067;49.470;10.394;2024-03-08T04:31:14;-0.10;69.00
6078;DHT22;3067;49.470;10.394;2024-03-08T04:33:41;-0.10;68.70
6078;DHT22;3067;49.470;10.394;2024-03-08T04:36:10;-0.10;68.40
6078;DHT22;3067;49.470;10.394;2024-03-08T04:38:40;0.00;68.20
6078;DHT22;3067;49.470;10.394;2024-03-08T04:41:07;0.00;68.00
6078;DHT22;3067;49.470;10.394;2024-03-08T04:43:35;0.00;67.80
6078;DHT22;3067;49.470;10.394;2024-03-08T04:46:02;0.00;67.60
6078;DHT22;3067;49.470;10.394;2024-03-08T04:48:31;0.00;67.10
6078;DHT22;3067;49.470;10.394;2024-03-08T04:50:58;0.00;66.90
6078;DHT22;3067;49.470;10.394;2024-03-08T04:53:25;0.00;66.90
6078;DHT22;3067;49.470;10.394;2024-03-08T04:55:54;-0.10;67.60
6078;DHT22;3067;49.470;10.394;2024-03-08T04:58:23;-0.10;67.70
6078;DHT22;3067;49.470;10.394;2024-03-08T05:00:50;-0.10;68.00
6078;DHT22;3067;49.470;10.394;2024-03-08T05:03:17;-0.10;68.00
6078;DHT22;3067;49.470;10.394;2024-03-08T05:05:44;-0.20;68.10
6078;DHT22;3067;49.470;10.394;2024-03-08T05:08:11;-0.20;68.70
6078;DHT22;3067;49.470;10.394;2024-03-08T05:10:38;-0.20;68.90
6078;DHT22;3067;49.470;10.394;2024-03-08T05:13:06;-0.30;69.00
6078;DHT22;3067;49.470;10.394;2024-03-08T05:15:34;-0.30;69.30
6078;DHT22;3067;49.470;10.394;2024-03-08T05:18:02;-0.30;69.40
6078;DHT22;3067;49.470;10.394;2024-03-08T05:20:29;-0.30;69.60
6078;DHT22;3067;49.470;10.394;2024-03-08T05:22:56;-0.40;69.80
6078;DHT22;3067;49.470;10.394;2024-03-08T05:25:24;-0.40;70.30
6078;DHT22;3067;49.470;10.394;2024-03-08T05:27:52;-0.40;70.70
6078;DHT22;3067;49.470;10.394;2024-03-08T05:30:20;-0.50;71.00
6078;DHT22;3067;49.470;10.394;2024-03-08T05:32:47;-0.50;71.00
6078;DHT22;3067;49.470;10.394;2024-03-08T05:35:14;-0.50;71.20
6078;DHT22;3067;49.470;10.394;2024-03-08T05:37:42;-0.50;71.30
6078;DHT22;3067;49.470;10.394;2024-03-08T05:40:09;-0.50;71.80
6078;DHT22;3067;49.470;10.394;2024-03-08T05:42:36;-0.60;72.30
6078;DHT22;3067;49.470;10.394;2024-03-08T05:45:04;-0.60;72.60
6078;DHT22;3067;49.470;10.394;2024-03-08T05:47:33;-0.60;72.80
6078;DHT22;3067;49.470;10.394;2024-03-08T05:50:01;-0.60;72.90
6078;DHT22;3067;49.470;10.394;2024-03-08T05:52:28;-0.50;73.00
6078;DHT22;3067;49.470;10.394;2024-03-08T05:54:55;-0.50;73.10
6078;DHT22;3067;49.470;10.394;2024-03-08T05:57:23;-0.50;73.10
6078;DHT22;3067;49.470;10.394;2024-03-08T05:59:50;-0.40;72.90
6078;DHT22;3067;49.470;10.394;2024-03-08T06:02:17;-0.30;72.60
6078;DHT22;3067;49.470;10.394;2024-03-08T06:04:46;-0.20;72.50
6078;DHT22;3067;49.470;10.394;2024-03-08T06:07:13;-0.20;72.20
6078;DHT22;3067;49.470;10.394;2024-03-08T06:09:40;-0.10;72.00
6078;DHT22;3067;49.470;10.394;2024-03-08T06:12:11;-0.10;71.80
6078;DHT22;3067;49.470;10.394;2024-03-08T06:14:38;0.00;71.50
6078;DHT22;3067;49.470;10.394;2024-03-08T06:17:05;0.00;71.20
6078;DHT22;3067;49.470;10.394;2024-03-08T06:19:33;0.00;70.90
6078;DHT22;3067;49.470;10.394;2024-03-08T06:22:03;0.00;70.70
6078;DHT22;3067;49.470;10.394;2024-03-08T06:24:31;0.10;70.70
6078;DHT22;3067;49.470;10.394;2024-03-08T06:26:58;0.20;70.50
6078;DHT22;3067;49.470;10.394;2024-03-08T06:29:25;0.20;70.30
6078;DHT22;3067;49.470;10.394;2024-03-08T06:31:52;0.30;70.20
6078;DHT22;3067;49.470;10.394;2024-03-08T06:34:19;0.20;70.20
6078;DHT22;3067;49.470;10.394;2024-03-08T06:36:46;0.20;70.40
6078;DHT22;3067;49.470;10.394;2024-03-08T06:39:14;0.20;70.50
6078;DHT22;3067;49.470;10.394;2024-03-08T06:41:42;0.20;70.70
6078;DHT22;3067;49.470;10.394;2024-03-08T06:44:10;0.20;70.80
6078;DHT22;3067;49.470;10.394;2024-03-08T06:46:37;0.30;71.00
6078;DHT22;3067;49.470;10.394;2024-03-08T06:49:04;0.30;71.00
6078;DHT22;3067;49.470;10.394;2024-03-08T06:51:32;0.30;71.10
6078;DHT22;3067;49.470;10.394;2024-03-08T06:53:59;0.40;71.10
6078;DHT22;3067;49.470;10.394;2024-03-08T06:56:28;0.40;71.10
6078;DHT22;3067;49.470;10.394;2024-03-08T06:58:56;0.50;71.10
6078;DHT22;3067;49.470;10.394;2024-03-08T07:01:23;0.60;71.00
6078;DHT22;3067;49.470;10.394;2024-03-08T07:03:50;0.60;70.90
6078;DHT22;3067;49.470;10.394;2024-03-08T07:06:18;0.70;71.00
6078;DHT22;3067;49.470;10.394;2024-03-08T07:08:45;0.80;70.90
6078;DHT22;3067;49.470;10.394;2024-03-08T07:11:14;0.90;70.90
6078;DHT22;3067;49.470;10.394;2024-03-08T07:13:45;1.00;70.70
6078;DHT22;3067;49.470;10.394;2024-03-08T07:16:12;1.10;70.40
6078;DHT22;3067;49.470;10.394;2024-03-08T07:18:39;1.30;70.20
6078;DHT22;3067;49.470;10.394;2024-03-08T07:21:09;1.40;69.90
6078;DHT22;3067;49.470;10.394;2024-03-08T07:23:36;1.40;69.80
6078;DHT22;3067;49.470;10.394;2024-03-08T07:26:39;1.60;69.90
6078;DHT22;3067;49.470;10.394;2024-03-08T07:29:07;1.70;69.60
6078;DHT22;3067;49.470;10.394;2024-03-08T07:31:34;1.80;69.40
6078;DHT22;3067;49.470;10.394;2024-03-08T07:34:16;1.80;69.00
6078;DHT22;3067;49.470;10.394;2024-03-08T07:36:43;1.90;69.10
6078;DHT22;3067;49.470;10.394;2024-03-08T07:39:10;2.00;69.00
6078;DHT22;3067;49.470;10.394;2024-03-08T07:41:39;2.10;68.70
6078;DHT22;3067;49.470;10.394;2024-03-08T07:44:08;2.20;68.30
6078;DHT22;3067;49.470;10.394;2024-03-08T07:46:35;2.20;68.10
6078;DHT22;3067;49.470;10.394;2024-03-08T07:49:03;2.20;68.00
6078;DHT22;3067;49.470;10.394;2024-03-08T07:51:30;2.20;67.90
6078;DHT22;3067;49.470;10.394;2024-03-08T07:53:57;2.20;67.80
6078;DHT22;3067;49.470;10.394;2024-03-08T07:56:25;2.10;68.10
6078;DHT22;3067;49.470;10.394;2024-03-08T07:58:52;2.00;68.40
6078;DHT22;3067;49.470;10.394;2024-03-08T08:01:21;2.00;68.60
6078;DHT22;3067;49.470;10.394;2024-03-08T08:03:48;1.90;69.00
6078;DHT22;3067;49.470;10.394;2024-03-08T08:06:15;1.90;69.70
6078;DHT22;3067;49.470;10.394;2024-03-08T08:08:42;1.90;70.20
6078;DHT22;3067;49.470;10.394;2024-03-08T08:11:10;2.00;69.80
6078;DHT22;3067;49.470;10.394;2024-03-08T08:13:37;2.00;70.20
6078;DHT22;3067;49.470;10.394;2024-03-08T08:16:05;2.00;70.10
6078;DHT22;3067;49.470;10.394;2024-03-08T08:18:34;2.10;69.70
6078;DHT22;3067;49.470;10.394;2024-03-08T08:21:02;2.20;69.70
6078;DHT22;3067;49.470;10.394;2024-03-08T08:23:31;2.20;69.30
6078;DHT22;3067;49.470;10.394;2024-03-08T08:25:59;2.20;69.10
6078;DHT22;3067;49.470;10.394;2024-03-08T08:28:27;2.20;69.50
6078;DHT22;3067;49.470;10.394;2024-03-08T08:30:54;2.20;69.50
6078;DHT22;3067;49.470;10.394;2024-03-08T08:33:21;2.30;69.40
6078;DHT22;3067;49.470;10.394;2024-03-08T08:35:49;2.30;69.40
6078;DHT22;3067;49.470;10.394;2024-03-08T08:38:19;2.40;69.30
6078;DHT22;3067;49.470;10.394;2024-03-08T08:40:47;2.50;69.70
6078;DHT22;3067;49.470;10.394;2024-03-08T08:43:14;2.50;69.10
6078;DHT22;3067;49.470;10.394;2024-03-08T08:45:43;2.60;69.10
6078;DHT22;3067;49.470;10.394;2024-03-08T08:48:12;2.80;69.30
6078;DHT22;3067;49.470;10.394;2024-03-08T08:50:39;2.90;69.40
6078;DHT22;3067;49.470;10.394;2024-03-08T08:53:08;3.10;68.30
6078;DHT22;3067;49.470;10.394;2024-03-08T08:55:36;3.20;67.40
6078;DHT22;3067;49.470;10.394;2024-03-08T08:58:03;3.30;67.30
6078;DHT22;3067;49.470;10.394;2024-03-08T09:00:31;3.30;66.60
6078;DHT22;3067;49.470;10.394;2024-03-08T09:02:58;3.50;67.50
6078;DHT22;3067;49.470;10.394;2024-03-08T09:05:25;3.60;66.50
6078;DHT22;3067;49.470;10.394;2024-03-08T09:07:52;3.70;65.40
6078;DHT22;3067;49.470;10.394;2024-03-08T09:10:21;3.90;66.50
6078;DHT22;3067;49.470;10.394;2024-03-08T09:12:49;4.10;65.20
6078;DHT22;3067;49.470;10.394;2024-03-08T09:15:16;4.20;64.70
6078;DHT22;3067;49.470;10.394;2024-03-08T09:17:43;4.40;64.60
6078;DHT22;3067;49.470;10.394;2024-03-08T09:20:11;4.50;63.90
6078;DHT22;3067;49.470;10.394;2024-03-08T09:22:40;4.70;64.10
6078;DHT22;3067;49.470;10.394;2024-03-08T09:25:08;4.90;62.60
6078;DHT22;3067;49.470;10.394;2024-03-08T09:27:37;5.00;61.10
6078;DHT22;3067;49.470;10.394;2024-03-08T09:30:06;5.10;60.80
6078;DHT22;3067;49.470;10.394;2024-03-08T09:32:33;5.10;59.50
6078;DHT22;3067;49.470;10.394;2024-03-08T09:35:00;5.00;59.40
6078;DHT22;3067;49.470;10.394;2024-03-08T09:37:28;5.00;59.70
6078;DHT22;3067;49.470;10.394;2024-03-08T09:39:55;5.00;59.90
6078;DHT22;3067;49.470;10.394;2024-03-08T09:42:23;5.00;59.70
6078;DHT22;3067;49.470;10.394;2024-03-08T09:44:52;5.10;59.30
6078;DHT22;3067;49.470;10.394;2024-03-08T09:47:22;5.10;60.00
6078;DHT22;3067;49.470;10.394;2024-03-08T09:49:54;5.20;60.10
6078;DHT22;3067;49.470;10.394;2024-03-08T09:52:21;5.30;59.50
6078;DHT22;3067;49.470;10.394;2024-03-08T09:54:48;5.40;59.60
6078;DHT22;3067;49.470;10.394;2024-03-08T09:57:16;5.50;59.20
6078;DHT22;3067;49.470;10.394;2024-03-08T09:59:43;5.60;58.60
6078;DHT22;3067;49.470;10.394;2024-03-08T10:02:18;5.70;58.30
6078;DHT22;3067;49.470;10.394;2024-03-08T10:04:46;5.80;57.80
6078;DHT22;3067;49.470;10.394;2024-03-08T10:07:14;5.90;57.10
6078;DHT22;3067;49.470;10.394;2024-03-08T10:09:41;6.00;57.30
6078;DHT22;3067;49.470;10.394;2024-03-08T10:12:13;6.10;56.20
6078;DHT22;3067;49.470;10.394;2024-03-08T10:14:41;6.10;56.50
6078;DHT22;3067;49.470;10.394;2024-03-08T10:17:09;6.30;56.10
6078;DHT22;3067;49.470;10.394;2024-03-08T10:19:37;6.50;55.80
6078;DHT22;3067;49.470;10.394;2024-03-08T10:22:05;6.60;55.40
6078;DHT22;3067;49.470;10.394;2024-03-08T10:24:33;6.70;54.90
6078;DHT22;3067;49.470;10.394;2024-03-08T10:27:01;6.80;54.20
6078;DHT22;3067;49.470;10.394;2024-03-08T10:29:31;6.90;53.50
6078;DHT22;3067;49.470;10.394;2024-03-08T10:31:58;7.00;53.60
6078;DHT22;3067;49.470;10.394;2024-03-08T10:34:25;7.00;53.20
6078;DHT22;3067;49.470;10.394;2024-03-08T10:36:57;7.10;52.50
6078;DHT22;3067;49.470;10.394;2024-03-08T10:39:33;7.20;52.20
6078;DHT22;3067;49.470;10.394;2024-03-08T10:42:03;7.30;52.20
6078;DHT22;3067;49.470;10.394;2024-03-08T10:44:43;7.40;50.90
6078;DHT22;3067;49.470;10.394;2024-03-08T10:47:18;7.50;50.90
6078;DHT22;3067;49.470;10.394;2024-03-08T10:49:53;7.50;50.90
6078;DHT22;3067;49.470;10.394;2024-03-08T10:52:22;7.60;50.80
6078;DHT22;3067;49.470;10.394;2024-03-08T10:54:51;7.80;50.40
6078;DHT22;3067;49.470;10.394;2024-03-08T10:57:19;7.90;50.20
6078;DHT22;3067;49.470;10.394;2024-03-08T10:59:50;8.00;50.90
6078;DHT22;3067;49.470;10.394;2024-03-08T11:02:19;8.10;51.00
6078;DHT22;3067;49.470;10.394;2024-03-08T11:04:47;8.20;50.90
6078;DHT22;3067;49.470;10.394;2024-03-08T11:07:14;8.40;50.60
6078;DHT22;3067;49.470;10.394;2024-03-08T11:09:47;8.60;50.50
6078;DHT22;3067;49.470;10.394;2024-03-08T11:12:25;8.70;50.20
6078;DHT22;3067;49.470;10.394;2024-03-08T11:14:55;8.90;48.20
6078;DHT22;3067;49.470;10.394;2024-03-08T11:17:40;8.90;48.40
6078;DHT22;3067;49.470;10.394;2024-03-08T11:20:10;9.00;47.80
6078;DHT22;3067;49.470;10.394;2024-03-08T11:22:41;9.00;47.50
6078;DHT22;3067;49.470;10.394;2024-03-08T11:25:30;9.10;47.10
6078;DHT22;3067;49.470;10.394;2024-03-08T11:28:13;9.20;47.30
6078;DHT22;3067;49.470;10.394;2024-03-08T11:30:44;9.40;46.20
6078;DHT22;3067;49.470;10.394;2024-03-08T11:33:13;9.40;46.00
6078;DHT22;3067;49.470;10.394;2024-03-08T11:35:40;9.60;46.50
6078;DHT22;3067;49.470;10.394;2024-03-08T11:38:12;9.80;46.00
6078;DHT22;3067;49.470;10.394;2024-03-08T11:40:42;10.00;46.50
6078;DHT22;3067;49.470;10.394;2024-03-08T11:43:09;10.10;45.50
6078;DHT22;3067;49.470;10.394;2024-03-08T11:45:37;10.20;44.10
6078;DHT22;3067;49.470;10.394;2024-03-08T11:48:07;10.30;44.10
6078;DHT22;3067;49.470;10.394;2024-03-08T11:50:34;10.50;43.70
6078;DHT22;3067;49.470;10.394;2024-03-08T11:53:02;10.70;43.90
6078;DHT22;3067;49.470;10.394;2024-03-08T11:55:29;10.90;43.70
6078;DHT22;3067;49.470;10.394;2024-03-08T11:58:03;11.00;43.20
6078;DHT22;3067;49.470;10.394;2024-03-08T12:00:30;11.10;42.30
6078;DHT22;3067;49.470;10.394;2024-03-08T12:03:05;11.10;42.50
6078;DHT22;3067;49.470;10.394;2024-03-08T12:05:32;11.30;42.40
6078;DHT22;3067;49.470;10.394;2024-03-08T12:08:00;11.50;41.20
6078;DHT22;3067;49.470;10.394;2024-03-08T12:10:27;11.70;42.00
6078;DHT22;3067;49.470;10.394;2024-03-08T12:12:57;11.80;41.10
6078;DHT22;3067;49.470;10.394;2024-03-08T12:15:27;11.90;40.80
6078;DHT22;3067;49.470;10.394;2024-03-08T12:17:55;12.00;40.10
6078;DHT22;3067;49.470;10.394;2024-03-08T12:20:24;12.10;38.90
6078;DHT22;3067;49.470;10.394;2024-03-08T12:22:52;12.30;39.10
6078;DHT22;3067;49.470;10.394;2024-03-08T12:25:20;12.50;38.70
6078;DHT22;3067;49.470;10.394;2024-03-08T12:27:47;12.50;38.10
6078;DHT22;3067;49.470;10.394;2024-03-08T12:30:22;12.80;38.50
6078;DHT22;3067;49.470;10.394;2024-03-08T12:32:55;12.90;37.60
6078;DHT22;3067;49.470;10.394;2024-03-08T12:35:24;13.00;37.80
6078;DHT22;3067;49.470;10.394;2024-03-08T12:37:53;13.10;37.20
6078;DHT22;3067;49.470;10.394;2024-03-08T12:40:26;13.30;37.50
6078;DHT22;3067;49.470;10.394;2024-03-08T12:42:54;13.30;36.40
6078;DHT22;3067;49.470;10.394;2024-03-08T12:45:21;13.40;35.40
6078;DHT22;3067;49.470;10.394;2024-03-08T12:47:50;13.40;35.20
6078;DHT22;3067;49.470;10.394;2024-03-08T12:50:18;13.60;35.50
6078;DHT22;3067;49.470;10.394;2024-03-08T12:52:46;13.90;35.00
6078;DHT22;3067;49.470;10.394;2024-03-08T12:55:14;14.00;34.80
6078;DHT22;3067;49.470;10.394;2024-03-08T12:57:42;14.20;34.20
6078;DHT22;3067;49.470;10.394;2024-03-08T13:00:10;14.40;33.00
6078;DHT22;3067;49.470;10.394;2024-03-08T13:02:39;14.40;33.10
6078;DHT22;3067;49.470;10.394;2024-03-08T13:05:08;14.50;32.70
6078;DHT22;3067;49.470;10.394;2024-03-08T13:07:37;14.70;32.60
6078;DHT22;3067;49.470;10.394;2024-03-08T13:10:06;14.70;33.10
6078;DHT22;3067;49.470;10.394;2024-03-08T13:12:34;14.80;32.80
6078;DHT22;3067;49.470;10.394;2024-03-08T13:15:04;14.90;33.10
6078;DHT22;3067;49.470;10.394;2024-03-08T13:17:32;15.00;32.40
6078;DHT22;3067;49.470;10.394;2024-03-08T13:19:59;15.00;32.30
6078;DHT22;3067;49.470;10.394;2024-03-08T13:22:26;15.30;32.40
6078;DHT22;3067;49.470;10.394;2024-03-08T13:24:55;15.50;32.30
6078;DHT22;3067;49.470;10.394;2024-03-08T13:27:22;15.80;32.20
6078;DHT22;3067;49.470;10.394;2024-03-08T13:29:50;16.10;31.50
6078;DHT22;3067;49.470;10.394;2024-03-08T13:35:23;16.50;29.50
6078;DHT22;3067;49.470;10.394;2024-03-08T13:37:52;16.70;29.10
6078;DHT22;3067;49.470;10.394;2024-03-08T13:40:21;16.90;28.90
6078;DHT22;3067;49.470;10.394;2024-03-08T13:42:48;17.00;28.90
6078;DHT22;3067;49.470;10.394;2024-03-08T13:45:16;17.20;27.90
6078;DHT22;3067;49.470;10.394;2024-03-08T13:47:48;17.20;27.80
6078;DHT22;3067;49.470;10.394;2024-03-08T13:50:17;17.20;28.00
6078;DHT22;3067;49.470;10.394;2024-03-08T13:52:47;17.20;28.20
6078;DHT22;3067;49.470;10.394;2024-03-08T13:55:17;17.50;27.60
6078;DHT22;3067;49.470;10.394;2024-03-08T13:57:45;17.50;26.90
6078;DHT22;3067;49.470;10.394;2024-03-08T14:00:14;17.50;27.10
6078;DHT22;3067;49.470;10.394;2024-03-08T14:02:42;17.80;26.80
6078;DHT22;3067;49.470;10.394;2024-03-08T14:05:09;17.90;27.10
6078;DHT22;3067;49.470;10.394;2024-03-08T14:07:37;17.90;26.80
6078;DHT22;3067;49.470;10.394;2024-03-08T14:10:05;18.00;26.20
6078;DHT22;3067;49.470;10.394;2024-03-08T14:12:35;18.00;26.40
6078;DHT22;3067;49.470;10.394;2024-03-08T14:15:48;17.80;26.10
6078;DHT22;3067;49.470;10.394;2024-03-08T14:36:20;19.10;24.90
6078;DHT22;3067;49.470;10.394;2024-03-08T14:38:48;19.40;24.60
6078;DHT22;3067;49.470;10.394;2024-03-08T14:41:42;19.70;24.50
6078;DHT22;3067;49.470;10.394;2024-03-08T14:44:09;20.00;24.70
6078;DHT22;3067;49.470;10.394;2024-03-08T14:46:37;20.30;24.60
6078;DHT22;3067;49.470;10.394;2024-03-08T14:49:04;20.60;23.60
6078;DHT22;3067;49.470;10.394;2024-03-08T14:51:34;20.80;23.50
6078;DHT22;3067;49.470;10.394;2024-03-08T14:54:01;20.60;22.50
6078;DHT22;3067;49.470;10.394;2024-03-08T14:56:32;20.40;23.00
6078;DHT22;3067;49.470;10.394;2024-03-08T14:59:00;20.40;23.00
6078;DHT22;3067;49.470;10.394;2024-03-08T15:01:28;20.30;23.20
6078;DHT22;3067;49.470;10.394;2024-03-08T15:07:25;20.10;23.20
6078;DHT22;3067;49.470;10.394;2024-03-08T15:10:10;19.90;23.80
6078;DHT22;3067;49.470;10.394;2024-03-08T15:13:19;19.30;24.30
6078;DHT22;3067;49.470;10.394;2024-03-08T15:22:37;17.80;25.60
6078;DHT22;3067;49.470;10.394;2024-03-08T15:54:00;17.00;27.80
6078;DHT22;3067;49.470;10.394;2024-03-08T15:56:30;17.20;28.00
6078;DHT22;3067;49.470;10.394;2024-03-08T15:58:57;17.50;27.30
6078;DHT22;3067;49.470;10.394;2024-03-08T16:01:24;17.50;27.30
6078;DHT22;3067;49.470;10.394;2024-03-08T16:03:54;17.20;27.60
6078;DHT22;3067;49.470;10.394;2024-03-08T16:08:53;17.40;27.70
6078;DHT22;3067;49.470;10.394;2024-03-08T16:11:22;17.20;27.70
6078;DHT22;3067;49.470;10.394;2024-03-08T16:13:49;17.00;28.20
6078;DHT22;3067;49.470;10.394;2024-03-08T16:16:16;16.90;28.30
6078;DHT22;3067;49.470;10.394;2024-03-08T16:18:44;16.70;29.00
6078;DHT22;3067;49.470;10.394;2024-03-08T16:21:11;16.80;28.90
6078;DHT22;3067;49.470;10.394;2024-03-08T16:23:38;16.90;28.80
6078;DHT22;3067;49.470;10.394;2024-03-08T16:26:34;16.80;28.90
6078;DHT22;3067;49.470;10.394;2024-03-08T16:29:02;16.40;29.60
6078;DHT22;3067;49.470;10.394;2024-03-08T16:31:31;15.80;30.30
6078;DHT22;3067;49.470;10.394;2024-03-08T16:34:34;15.20;31.20
6078;DHT22;3067;49.470;10.394;2024-03-08T16:37:01;14.50;32.10
6078;DHT22;3067;49.470;10.394;2024-03-08T16:59:08;11.30;38.60
6078;DHT22;3067;49.470;10.394;2024-03-08T17:05:22;10.90;39.60
6078;DHT22;3067;49.470;10.394;2024-03-08T17:16:15;10.30;41.30
6078;DHT22;3067;49.470;10.394;2024-03-08T17:19:09;10.10;41.80
6078;DHT22;3067;49.470;10.394;2024-03-08T17:22:13;9.90;42.20
6078;DHT22;3067;49.470;10.394;2024-03-08T17:32:06;9.40;43.60
6078;DHT22;3067;49.470;10.394;2024-03-08T17:34:35;9.20;44.10
6078;DHT22;3067;49.470;10.394;2024-03-08T17:37:08;9.10;44.30
6078;DHT22;3067;49.470;10.394;2024-03-08T17:40:15;9.00;44.40
6078;DHT22;3067;49.470;10.394;2024-03-08T17:42:59;8.90;44.80
6078;DHT22;3067;49.470;10.394;2024-03-08T17:45:34;8.80;45.10
6078;DHT22;3067;49.470;10.394;2024-03-08T17:55:43;8.40;46.50
6078;DHT22;3067;49.470;10.394;2024-03-08T18:06:07;8.00;48.80